Time;durP1;ratioP1;P1;durP2;ratioP2;P2;SDS_P1;SDS_P2;PMS_P1;PMS_P2;Temp;Humidity;BMP_temperature;BMP_pressure;BME280_temperature;BME280_humidity;BME280_pressure;Samples;Min_cycle;Max_cycle;Signal;HPM_P1;HPM_P2
2023/06/16 00:01:16;;;;;;;7.80;6.90;;;;;;;17.54;75.44;98150.16;4192651;28;20893;-82
2023/06/16 00:03:21;;;;;;;8.17;7.10;;;;;;;17.55;76.40;98151.84;4194785;28;21231;-82
2023/06/16 00:05:24;;;;;;;7.33;6.57;;;;;;;17.58;76.17;98154.19;4195225;28;20624;-82
2023/06/16 00:07:31;;;;;;;7.47;6.77;;;;;;;17.57;74.80;98158.59;4183024;28;21254;-82
2023/06/16 00:09:34;;;;;;;7.70;6.90;;;;;;;17.48;75.50;98156.88;4195372;28;20674;-82
2023/06/16 00:11:37;;;;;;;7.33;6.63;;;;;;;17.46;76.43;98156.16;4194273;28;20964;-82
2023/06/16 00:13:41;;;;;;;7.70;6.47;;;;;;;17.37;75.36;98158.84;4193466;28;21037;-82
2023/06/16 00:15:46;;;;;;;10.57;7.00;;;;;;;17.23;75.85;98161.97;4189724;28;20920;-82
2023/06/16 00:17:49;;;;;;;7.50;6.80;;;;;;;17.11;75.58;98149.06;4200060;28;20635;-82
2023/06/16 00:19:54;;;;;;;7.23;6.53;;;;;;;17.06;75.54;98164.47;4199960;28;20737;-82
2023/06/16 00:21:59;;;;;;;7.53;6.70;;;;;;;17.05;77.51;98160.19;4203545;28;21237;-82
2023/06/16 00:24:03;;;;;;;8.00;6.87;;;;;;;17.06;78.05;98169.72;4197153;28;20752;-82
2023/06/16 00:26:06;;;;;;;7.17;6.43;;;;;;;17.10;76.27;98157.94;4197489;28;20667;-82
2023/06/16 00:28:09;;;;;;;6.70;6.00;;;;;;;17.08;76.81;98162.53;4185710;28;20707;-82
2023/06/16 00:30:13;;;;;;;8.67;7.00;;;;;;;17.01;78.38;98156.97;4197531;28;20646;-83
2023/06/16 00:32:17;;;;;;;7.97;7.03;;;;;;;16.99;77.47;98156.31;4193476;28;20740;-83
2023/06/16 00:34:20;;;;;;;7.00;6.30;;;;;;;16.98;76.99;98155.63;4188710;28;20730;-82
2023/06/16 00:36:24;;;;;;;7.57;6.77;;;;;;;16.97;77.64;98153.94;4201682;28;20649;-82
2023/06/16 00:38:28;;;;;;;9.37;7.57;;;;;;;16.94;78.46;98149.78;4201161;28;20805;-82
2023/06/16 00:40:31;;;;;;;7.77;6.90;;;;;;;16.93;78.56;98152.56;4204091;28;21051;-83
2023/06/16 00:42:35;;;;;;;7.50;6.73;;;;;;;16.88;78.44;98145.09;4197961;28;21322;-82
2023/06/16 00:44:38;;;;;;;8.23;7.30;;;;;;;16.83;78.91;98149.13;4184883;28;21260;-82
2023/06/16 00:46:41;;;;;;;7.40;6.60;;;;;;;16.80;79.20;98147.59;4180328;28;20617;-82
2023/06/16 00:48:45;;;;;;;9.10;6.97;;;;;;;16.79;77.36;98142.47;4184117;28;21053;-82
2023/06/16 00:50:49;;;;;;;7.70;6.90;;;;;;;16.81;77.77;98146.63;4202397;28;21054;-82
2023/06/16 00:52:52;;;;;;;6.77;6.07;;;;;;;16.81;76.56;98149.28;4193189;28;20647;-82
2023/06/16 00:54:56;;;;;;;8.27;7.37;;;;;;;16.76;77.44;98154.13;4173844;28;22718;-82
2023/06/16 00:56:59;;;;;;;7.37;6.57;;;;;;;16.73;78.15;98150.94;4191771;28;20642;-82
2023/06/16 00:59:03;;;;;;;8.60;7.10;;;;;;;16.70;79.08;98149.44;4181484;28;20671;-82
2023/06/16 01:01:06;;;;;;;8.73;6.77;;;;;;;16.67;77.80;98147.09;4178585;28;20632;-83
2023/06/16 01:03:09;;;;;;;7.37;6.53;;;;;;;16.65;77.45;98143.75;4173929;28;20633;-83
2023/06/16 01:05:17;;;;;;;8.43;6.70;;;;;;;16.65;78.05;98151.63;4190875;28;20640;-82
2023/06/16 01:07:28;;;;;;;7.67;6.50;;;;;;;16.69;77.91;98153.03;4180587;28;20664;-83
2023/06/16 01:09:44;;;;;;;7.57;6.63;;;;;;;16.69;79.58;98155.66;4204562;28;20626;-83
2023/06/16 01:11:52;;;;;;;8.27;6.73;;;;;;;16.68;77.44;98159.25;4197250;28;20683;-82
2023/06/16 01:14:03;;;;;;;7.93;6.53;;;;;;;16.60;77.77;98153.88;4186171;28;20632;-83
2023/06/16 01:16:08;;;;;;;7.47;6.70;;;;;;;16.54;78.04;98154.44;4180338;28;20739;-82
2023/06/16 01:18:14;;;;;;;7.10;6.40;;;;;;;16.52;80.22;98153.75;4188923;28;21002;-82
2023/06/16 01:20:26;;;;;;;7.90;7.00;;;;;;;16.51;80.34;98149.44;4191539;28;20721;-82
2023/06/16 01:22:38;;;;;;;8.40;7.10;;;;;;;16.52;80.73;98153.75;4179884;28;20752;-82
2023/06/16 01:24:45;;;;;;;8.10;7.23;;;;;;;16.50;78.87;98149.59;4196202;28;20651;-82
2023/06/16 01:26:53;;;;;;;7.80;6.97;;;;;;;16.51;80.83;98154.72;4194949;28;20635;-82
2023/06/16 01:28:57;;;;;;;9.20;7.90;;;;;;;16.51;80.75;98157.34;4193284;28;20637;-82
2023/06/16 01:31:01;;;;;;;8.10;7.30;;;;;;;16.53;78.20;98159.84;4179091;28;20623;-82
2023/06/16 01:33:04;;;;;;;9.10;7.77;;;;;;;16.54;78.60;98153.59;4195187;28;21138;-82
2023/06/16 01:35:09;;;;;;;8.73;7.87;;;;;;;16.54;78.43;98153.59;4176637;28;20625;-82
2023/06/16 01:37:13;;;;;;;9.57;8.07;;;;;;;16.53;77.46;98155.38;4183264;28;20644;-82
2023/06/16 01:39:17;;;;;;;10.07;8.03;;;;;;;16.53;77.50;98158.03;4186061;28;20739;-82
2023/06/16 01:41:22;;;;;;;7.93;6.83;;;;;;;16.52;79.96;98148.47;4189428;28;20642;-82
2023/06/16 01:43:25;;;;;;;8.87;7.70;;;;;;;16.48;78.68;98151.53;4186418;28;20659;-82
2023/06/16 01:45:30;;;;;;;9.80;8.13;;;;;;;16.44;78.87;98144.88;4189486;28;21244;-82
2023/06/16 01:47:34;;;;;;;8.13;7.30;;;;;;;16.42;79.33;98144.19;4185640;28;20736;-82
2023/06/16 01:49:38;;;;;;;7.93;7.13;;;;;;;16.39;79.61;98146.25;4188140;28;20637;-82
2023/06/16 01:51:41;;;;;;;9.30;8.30;;;;;;;16.34;78.14;98145.84;4190512;28;20629;-82
2023/06/16 01:53:45;;;;;;;8.97;7.93;;;;;;;16.34;79.33;98140.56;4184626;28;20665;-82
2023/06/16 01:55:49;;;;;;;8.60;7.70;;;;;;;16.33;80.38;98152.09;4176088;28;20629;-82
2023/06/16 01:57:56;;;;;;;9.10;7.63;;;;;;;16.34;79.22;98141.44;4187160;28;20632;-82
2023/06/16 02:00:03;;;;;;;9.73;8.13;;;;;;;16.35;79.79;98152.78;4181464;28;20644;-82
2023/06/16 02:02:19;;;;;;;8.80;7.33;;;;;;;16.36;80.11;98147.38;4192171;28;20632;-82
2023/06/16 02:04:24;;;;;;;9.53;7.60;;;;;;;16.35;80.57;98152.78;4172918;28;20640;-82
2023/06/16 02:06:29;;;;;;;9.17;7.80;;;;;;;16.33;78.99;98152.91;4188156;28;20671;-82
2023/06/16 02:08:33;;;;;;;8.50;7.13;;;;;;;16.29;78.57;98154.16;4188887;28;20627;-82
2023/06/16 02:10:37;;;;;;;8.00;7.10;;;;;;;16.26;81.04;98153.59;4191435;28;20631;-82
2023/06/16 02:12:40;;;;;;;8.20;7.40;;;;;;;16.24;79.48;98150.28;4202689;28;20741;-82
2023/06/16 02:14:45;;;;;;;9.63;6.67;;;;;;;16.25;80.12;98157.19;4200417;28;24687;-82
2023/06/16 02:16:50;;;;;;;8.67;7.77;;;;;;;16.26;80.25;98151.78;4200054;28;20773;-82
2023/06/16 02:18:55;;;;;;;7.93;7.13;;;;;;;16.27;79.28;98156.09;4189459;28;20664;-82
2023/06/16 02:20:58;;;;;;;8.70;7.70;;;;;;;16.27;79.09;98150.00;4192658;28;21020;-82
2023/06/16 02:23:01;;;;;;;7.90;7.10;;;;;;;16.24;81.36;98150.28;4198302;28;20756;-82
2023/06/16 02:25:05;;;;;;;10.27;7.90;;;;;;;16.22;80.81;98149.56;4184344;28;20654;-82
2023/06/16 02:27:08;;;;;;;9.47;8.07;;;;;;;16.21;80.52;98151.34;4184622;28;20640;-82
2023/06/16 02:29:12;;;;;;;8.90;8.00;;;;;;;16.22;81.44;98154.84;4202101;28;20632;-82
2023/06/16 02:31:18;;;;;;;11.13;8.03;;;;;;;16.22;79.88;98160.97;4201599;28;20640;-82
2023/06/16 02:33:22;;;;;;;8.70;7.50;;;;;;;16.26;80.86;98164.13;4197203;28;20673;-82
2023/06/16 02:35:25;;;;;;;9.20;8.30;;;;;;;16.26;81.72;98167.59;4193204;28;21303;-82
2023/06/16 02:37:28;;;;;;;9.00;7.90;;;;;;;16.23;81.28;98167.88;4201857;28;20636;-82
2023/06/16 02:39:32;;;;;;;8.07;7.23;;;;;;;16.20;81.60;98162.00;4199175;28;20634;-82
2023/06/16 02:41:36;;;;;;;15.70;8.63;;;;;;;16.18;81.62;98169.22;4185534;28;20679;-82
2023/06/16 02:43:39;;;;;;;8.30;7.50;;;;;;;16.21;80.44;98174.22;4189273;28;20637;-82
2023/06/16 02:45:42;;;;;;;8.10;7.30;;;;;;;16.24;82.11;98168.72;4203346;28;21287;-82
2023/06/16 02:47:47;;;;;;;10.13;8.83;;;;;;;16.25;81.83;98170.34;4202405;28;20642;-82
2023/06/16 02:49:51;;;;;;;11.50;7.90;;;;;;;16.23;79.96;98172.31;4185207;28;20644;-82
2023/06/16 02:51:54;;;;;;;8.53;7.60;;;;;;;16.22;80.35;98175.91;4194754;28;21040;-82
2023/06/16 02:53:59;;;;;;;8.90;7.50;;;;;;;16.17;80.38;98170.19;4195973;28;20686;-82
2023/06/16 02:56:02;;;;;;;9.50;8.60;;;;;;;16.16;81.49;98165.88;4202353;28;20633;-82
2023/06/16 02:58:07;;;;;;;10.23;8.20;;;;;;;16.18;79.54;98169.22;4183866;28;21252;-82
2023/06/16 03:00:12;;;;;;;8.93;7.50;;;;;;;16.20;81.04;98177.81;4184715;28;21025;-82
2023/06/16 03:02:38;;;;;;;10.53;8.60;;;;;;;16.15;82.68;98182.66;4200180;28;20983;-82
2023/06/16 03:04:43;;;;;;;11.30;8.13;;;;;;;16.11;83.01;98176.00;4186351;28;20628;-82
2023/06/16 03:06:58;;;;;;;8.83;7.93;;;;;;;16.06;81.50;98175.59;4205334;28;20664;-82
2023/06/16 03:09:13;;;;;;;8.77;7.63;;;;;;;16.07;81.62;98177.22;4184861;28;20627;-82
2023/06/16 03:11:16;;;;;;;11.60;8.73;;;;;;;16.05;83.01;98179.16;4176928;28;20639;-82
2023/06/16 03:13:25;;;;;;;8.40;7.50;;;;;;;16.01;83.33;98169.88;4193174;28;20630;-82
2023/06/16 03:15:30;;;;;;;9.37;8.00;;;;;;;15.97;84.29;98173.75;4204267;28;20630;-82
2023/06/16 03:17:35;;;;;;;9.20;7.93;;;;;;;16.01;82.97;98176.94;4196483;28;20640;-82
2023/06/16 03:19:38;;;;;;;8.63;7.73;;;;;;;16.05;83.85;98176.53;4189736;28;20640;-82
2023/06/16 03:21:43;;;;;;;9.13;8.23;;;;;;;16.07;83.80;98177.22;4175546;28;20714;-82
2023/06/16 03:23:46;;;;;;;8.40;7.50;;;;;;;16.09;82.07;98176.13;4191240;28;20669;-82
2023/06/16 03:25:49;;;;;;;9.30;7.43;;;;;;;16.12;81.48;98169.78;4177395;28;20669;-82
2023/06/16 03:27:57;;;;;;;8.00;7.20;;;;;;;16.12;82.71;98180.31;4188508;28;20650;-82
2023/06/16 03:30:00;;;;;;;8.53;7.33;;;;;;;16.13;83.84;98174.91;4176665;28;20630;-82
2023/06/16 03:32:17;;;;;;;8.60;7.70;;;;;;;16.19;81.88;98186.66;4195211;28;20655;-82
2023/06/16 03:34:20;;;;;;;8.90;7.67;;;;;;;16.23;82.49;98185.47;4196845;28;20693;-82
2023/06/16 03:36:32;;;;;;;8.67;7.73;;;;;;;16.24;82.13;98195.03;4178274;28;20632;-82
2023/06/16 03:38:37;;;;;;;9.33;7.63;;;;;;;16.18;82.32;98190.28;4177959;28;20646;-82
2023/06/16 03:40:40;;;;;;;11.80;8.30;;;;;;;16.14;82.18;98191.50;4184844;28;21720;-82
2023/06/16 03:42:44;;;;;;;10.13;7.53;;;;;;;16.13;84.17;98187.22;4195457;28;21277;-82
2023/06/16 03:44:48;;;;;;;9.93;7.60;;;;;;;16.10;83.43;98192.75;4190116;28;20751;-82
2023/06/16 03:46:51;;;;;;;8.87;7.50;;;;;;;16.07;83.37;98187.75;4198410;28;20663;-82
2023/06/16 03:48:55;;;;;;;8.93;7.70;;;;;;;16.07;82.94;98185.13;4198204;28;20633;-82
2023/06/16 03:50:58;;;;;;;8.00;7.20;;;;;;;16.07;83.82;98183.34;4185440;28;20681;-82
2023/06/16 03:53:01;;;;;;;8.90;7.37;;;;;;;16.07;83.18;98185.97;4196818;28;21241;-82
2023/06/16 03:55:20;;;;;;;11.93;8.50;;;;;;;16.11;83.80;98189.16;4188437;28;20623;-82
2023/06/16 03:57:24;;;;;;;8.93;7.80;;;;;;;16.12;84.53;98188.19;4200995;28;20657;-82
2023/06/16 03:59:27;;;;;;;8.20;7.30;;;;;;;16.08;83.16;98194.69;4171438;28;20643;-82
2023/06/16 04:01:30;;;;;;;9.80;8.17;;;;;;;16.04;84.78;98194.13;4191037;28;20733;-82
2023/06/16 04:03:33;;;;;;;10.03;7.73;;;;;;;16.08;82.68;98195.50;4186842;28;20633;-82
2023/06/16 04:05:39;;;;;;;8.77;7.57;;;;;;;16.11;82.73;98194.41;4177835;28;20658;-82
2023/06/16 04:07:42;;;;;;;9.73;7.53;;;;;;;16.12;83.83;98198.72;4186054;28;20699;-82
2023/06/16 04:09:45;;;;;;;9.27;8.30;;;;;;;16.11;84.27;98203.13;4186659;28;20776;-82
2023/06/16 04:11:50;;;;;;;8.80;7.37;;;;;;;16.10;84.09;98200.63;4192969;28;20667;-82
2023/06/16 04:13:53;;;;;;;9.13;8.20;;;;;;;16.13;83.51;98203.00;4188707;28;20696;-82
2023/06/16 04:15:57;;;;;;;9.67;7.70;;;;;;;16.14;82.71;98204.66;4172839;28;20626;-82
2023/06/16 04:18:00;;;;;;;9.53;8.60;;;;;;;16.18;83.65;98204.25;4199746;28;21205;-82
2023/06/16 04:20:11;;;;;;;9.03;7.90;;;;;;;16.26;82.16;98203.63;4201162;28;20763;-82
2023/06/16 04:22:15;;;;;;;10.03;7.60;;;;;;;16.28;80.47;98209.56;4201885;28;20656;-82
2023/06/16 04:24:28;;;;;;;8.80;7.30;;;;;;;16.24;84.07;98203.75;4184515;28;20633;-82
2023/06/16 04:26:32;;;;;;;9.70;7.63;;;;;;;16.18;82.43;98198.19;4199964;28;20666;-82
2023/06/16 04:28:43;;;;;;;9.53;8.53;;;;;;;16.14;82.78;98204.66;4202140;28;20635;-82
2023/06/16 04:30:50;;;;;;;10.90;8.40;;;;;;;16.13;83.38;98203.84;4199324;28;20725;-82
2023/06/16 04:32:54;;;;;;;9.20;8.23;;;;;;;16.12;84.87;98206.63;4202615;28;20663;-82
2023/06/16 04:34:58;;;;;;;9.77;8.47;;;;;;;16.11;84.30;98197.88;4205340;28;20642;-82
2023/06/16 04:37:02;;;;;;;8.67;7.73;;;;;;;16.13;84.94;98203.00;4195291;28;20630;-82
2023/06/16 04:39:09;;;;;;;9.40;8.00;;;;;;;16.16;82.40;98205.34;4193209;28;20660;-82
2023/06/16 04:41:12;;;;;;;9.67;8.10;;;;;;;16.19;85.33;98202.44;4198162;28;20733;-82
2023/06/16 04:43:15;;;;;;;10.40;8.87;;;;;;;16.25;83.90;98210.69;4184665;28;20626;-84
2023/06/16 04:45:21;;;;;;;9.40;8.20;;;;;;;16.33;82.62;98212.66;4184260;28;20911;-81
2023/06/16 04:47:24;;;;;;;9.40;8.30;;;;;;;16.42;84.61;98214.44;4172411;28;21500;-80
2023/06/16 04:49:28;;;;;;;11.20;9.17;;;;;;;16.48;84.28;98220.00;4184322;28;20639;-81
2023/06/16 04:51:32;;;;;;;10.00;9.00;;;;;;;16.53;82.38;98213.31;4196315;28;20642;-83
2023/06/16 04:53:36;;;;;;;10.20;8.50;;;;;;;16.56;82.37;98213.06;4172555;28;20643;-82
2023/06/16 04:55:39;;;;;;;10.47;9.17;;;;;;;16.61;82.83;98216.13;4183881;28;20695;-82
2023/06/16 04:57:44;;;;;;;10.90;9.70;;;;;;;16.66;81.77;98213.06;4177819;28;20753;-82
2023/06/16 04:59:47;;;;;;;11.10;9.83;;;;;;;16.70;82.46;98223.19;4195655;28;20645;-82
2023/06/16 05:01:52;;;;;;;11.90;10.63;;;;;;;16.76;82.25;98219.97;4194752;28;20727;-81
2023/06/16 05:03:57;;;;;;;11.20;10.10;;;;;;;16.82;82.37;98215.97;4187155;28;21069;-82
2023/06/16 05:06:01;;;;;;;11.43;10.23;;;;;;;16.86;82.63;98212.91;4193427;28;20635;-82
2023/06/16 05:08:05;;;;;;;11.13;9.57;;;;;;;16.92;81.17;98211.53;4186331;28;21429;-82
2023/06/16 05:10:09;;;;;;;10.77;9.47;;;;;;;16.99;80.19;98221.38;4183794;28;20640;-82
2023/06/16 05:12:13;;;;;;;11.30;9.30;;;;;;;17.05;80.40;98219.00;4189909;28;20728;-82
2023/06/16 05:14:16;;;;;;;10.77;9.60;;;;;;;17.14;80.61;98219.97;4192193;28;20630;-82
2023/06/16 05:16:20;;;;;;;15.33;9.47;;;;;;;17.20;80.22;98225.53;4191019;28;20643;-82
2023/06/16 05:18:24;;;;;;;10.40;9.30;;;;;;;17.28;80.10;98217.72;4173083;28;20738;-82
2023/06/16 05:20:30;;;;;;;10.43;9.17;;;;;;;17.33;78.02;98222.56;4175442;28;20638;-82
2023/06/16 05:22:34;;;;;;;9.03;8.13;;;;;;;17.38;77.76;98222.97;4190596;28;20688;-82
2023/06/16 05:24:37;;;;;;;11.10;8.57;;;;;;;17.46;78.05;98224.75;4174622;28;21210;-82
2023/06/16 05:26:41;;;;;;;11.53;10.17;;;;;;;17.54;78.14;98222.22;4178806;28;20642;-82
2023/06/16 05:28:44;;;;;;;9.43;8.30;;;;;;;17.63;78.85;98226.63;4186524;28;20694;-82
2023/06/16 05:30:47;;;;;;;9.90;8.90;;;;;;;17.73;76.90;98235.34;4178287;28;20641;-82
2023/06/16 05:32:51;;;;;;;12.03;9.70;;;;;;;17.84;78.32;98231.69;4206132;28;20719;-84
2023/06/16 05:34:57;;;;;;;10.03;9.03;;;;;;;18.00;77.62;98232.72;4191122;28;20633;-83
2023/06/16 05:37:02;;;;;;;9.77;8.30;;;;;;;18.22;77.89;98232.34;4196056;28;20733;-83
2023/06/16 05:39:07;;;;;;;10.00;8.90;;;;;;;18.48;77.68;98239.41;4198773;28;21311;-83
2023/06/16 05:41:11;;;;;;;11.50;9.13;;;;;;;18.78;76.00;98252.22;4184653;28;20711;-83
2023/06/16 05:43:18;;;;;;;10.47;8.97;;;;;;;19.06;74.31;98252.88;4192368;28;20728;-83
2023/06/16 05:45:21;;;;;;;10.50;8.70;;;;;;;19.33;74.50;98254.56;4189596;28;20633;-83
2023/06/16 05:47:25;;;;;;;9.43;8.50;;;;;;;19.64;75.01;98259.25;4186923;28;21243;-83
2023/06/16 05:49:31;;;;;;;10.93;9.70;;;;;;;19.89;73.62;98253.94;4201731;28;21061;-82
2023/06/16 05:51:35;;;;;;;9.83;8.50;;;;;;;20.13;73.39;98259.34;4199728;28;20638;-82
2023/06/16 05:53:39;;;;;;;9.23;8.27;;;;;;;20.31;71.40;98260.91;4187720;28;20636;-83
2023/06/16 05:55:42;;;;;;;11.03;9.10;;;;;;;20.52;69.63;98259.50;4178331;28;20725;-83
2023/06/16 05:57:49;;;;;;;8.90;7.97;;;;;;;20.70;70.64;98262.88;4193788;28;20643;-83
2023/06/16 05:59:53;;;;;;;8.83;7.93;;;;;;;20.92;69.23;98267.56;4188422;28;20629;-83
2023/06/16 06:01:57;;;;;;;12.30;8.93;;;;;;;21.12;68.52;98272.38;4193408;28;20676;-83
2023/06/16 06:04:04;;;;;;;8.57;7.67;;;;;;;21.29;68.67;98272.22;4183860;28;20634;-83
2023/06/16 06:06:09;;;;;;;8.07;7.27;;;;;;;21.52;69.28;98281.19;4184941;28;20860;-83
2023/06/16 06:08:14;;;;;;;8.60;7.70;;;;;;;21.75;67.92;98278.66;4206726;28;20654;-83
2023/06/16 06:10:18;;;;;;;7.40;6.70;;;;;;;21.90;66.87;98283.94;4200008;28;21249;-84
2023/06/16 06:12:24;;;;;;;8.90;7.07;;;;;;;22.10;65.51;98276.41;4196044;28;20862;-84
2023/06/16 06:14:27;;;;;;;7.87;6.83;;;;;;;22.32;64.69;98279.19;4184333;28;20887;-83
2023/06/16 06:16:31;;;;;;;7.37;6.67;;;;;;;22.44;62.71;98277.81;4203501;28;20636;-84
2023/06/16 06:18:34;;;;;;;7.70;6.90;;;;;;;22.58;62.54;98277.91;4206497;28;21234;-84
2023/06/16 06:20:39;;;;;;;7.63;6.83;;;;;;;22.79;62.21;98284.25;4193085;28;20652;-83
2023/06/16 06:22:43;;;;;;;8.40;7.50;;;;;;;22.92;63.07;98281.84;4204742;28;21253;-83
2023/06/16 06:24:51;;;;;;;8.23;7.23;;;;;;;23.11;63.17;98288.56;4189152;28;20638;-83
2023/06/16 06:26:57;;;;;;;8.10;7.30;;;;;;;23.31;63.32;98282.59;4186671;28;20627;-83
2023/06/16 06:29:00;;;;;;;10.00;7.00;;;;;;;23.48;61.58;98287.56;4205817;28;20735;-83
2023/06/16 06:31:04;;;;;;;8.27;7.33;;;;;;;23.64;60.81;98292.81;4199301;28;20942;-83
2023/06/16 06:33:08;;;;;;;8.40;7.47;;;;;;;23.82;62.47;98295.97;4188034;28;20635;-83
2023/06/16 06:35:12;;;;;;;9.57;8.57;;;;;;;23.96;60.46;98297.81;4198938;28;20627;-83
2023/06/16 06:37:18;;;;;;;9.87;7.33;;;;;;;24.12;60.87;98298.47;4200143;28;20635;-83
2023/06/16 06:39:23;;;;;;;9.10;8.20;;;;;;;24.29;61.09;98295.41;4201701;28;20643;-83
2023/06/16 06:41:28;;;;;;;8.10;7.30;;;;;;;24.43;59.91;98302.66;4205399;28;20763;-83
2023/06/16 06:43:39;;;;;;;9.77;7.60;;;;;;;24.55;59.44;98303.81;4216689;28;20671;-83
2023/06/16 06:45:50;;;;;;;7.47;6.77;;;;;;;24.67;59.07;98294.31;4203207;28;20638;-83
2023/06/16 06:47:54;;;;;;;9.03;7.77;;;;;;;24.78;58.42;98302.66;4186542;28;20669;-84
2023/06/16 06:49:58;;;;;;;8.90;7.73;;;;;;;24.92;60.11;98301.78;4206577;28;20618;-83
2023/06/16 06:52:01;;;;;;;9.00;7.50;;;;;;;25.11;58.70;98303.91;4202145;28;21173;-83
2023/06/16 06:54:04;;;;;;;9.70;7.80;;;;;;;25.24;58.70;98315.56;4203919;28;20700;-84
2023/06/16 06:56:07;;;;;;;8.00;7.20;;;;;;;25.31;57.78;98313.75;4205700;28;20680;-84
2023/06/16 06:58:12;;;;;;;8.23;7.43;;;;;;;25.43;58.10;98309.56;4198959;28;20638;-83
2023/06/16 07:00:16;;;;;;;8.63;7.77;;;;;;;25.56;58.93;98308.84;4199616;28;20638;-83
2023/06/16 07:02:21;;;;;;;9.97;7.77;;;;;;;25.66;57.90;98304.84;4201824;28;21218;-84
2023/06/16 07:04:25;;;;;;;9.10;8.17;;;;;;;25.75;58.05;98323.22;4196112;28;20671;-82
2023/06/16 07:06:28;;;;;;;8.57;7.20;;;;;;;25.95;57.81;98318.88;4199945;28;21293;-84
2023/06/16 07:08:31;;;;;;;8.27;7.20;;;;;;;26.12;58.37;98318.38;4197067;28;20662;-84
2023/06/16 07:10:36;;;;;;;7.90;7.20;;;;;;;26.29;57.33;98319.75;4183898;28;20619;-84
2023/06/16 07:12:39;;;;;;;8.63;7.30;;;;;;;26.38;57.59;98320.41;4199051;28;21314;-85
2023/06/16 07:14:46;;;;;;;11.30;8.00;;;;;;;26.48;57.19;98312.88;4194977;28;20632;-84
2023/06/16 07:16:49;;;;;;;9.23;7.47;;;;;;;26.59;56.45;98315.78;4187738;28;20675;-85
2023/06/16 07:18:53;;;;;;;8.30;7.03;;;;;;;26.67;55.93;98313.78;4198490;28;20644;-84
2023/06/16 07:20:56;;;;;;;8.10;7.30;;;;;;;26.74;56.14;98319.97;4198558;28;21385;-85
2023/06/16 07:22:59;;;;;;;7.83;7.03;;;;;;;26.88;57.24;98320.84;4196633;28;21324;-85
2023/06/16 07:25:02;;;;;;;10.57;9.47;;;;;;;27.03;56.05;98324.25;4205064;28;20639;-83
2023/06/16 07:27:07;;;;;;;7.77;6.97;;;;;;;27.15;55.47;98324.28;4192000;28;20619;-84
2023/06/16 07:29:10;;;;;;;8.47;7.57;;;;;;;27.12;55.49;98324.69;4182709;28;20889;-84
2023/06/16 07:31:15;;;;;;;15.13;7.60;;;;;;;27.18;55.46;98318.53;4180785;28;20691;-85
2023/06/16 07:33:18;;;;;;;7.83;7.03;;;;;;;27.22;55.16;98318.94;4189949;28;21110;-85
2023/06/16 07:35:21;;;;;;;8.83;7.70;;;;;;;27.40;55.43;98321.88;4196741;28;20677;-85
2023/06/16 07:37:24;;;;;;;7.80;7.00;;;;;;;27.56;56.01;98316.97;4194821;28;20624;-84
2023/06/16 07:39:27;;;;;;;7.50;6.80;;;;;;;27.62;54.32;98316.16;4189250;28;21236;-85
2023/06/16 07:41:32;;;;;;;6.90;6.30;;;;;;;27.66;55.63;98315.53;4197313;28;20637;-85
2023/06/16 07:43:36;;;;;;;8.60;7.07;;;;;;;27.80;54.89;98311.81;4193757;28;20624;-85
2023/06/16 07:45:39;;;;;;;7.00;6.30;;;;;;;27.87;55.37;98309.94;4181115;28;20651;-85
2023/06/16 07:47:45;;;;;;;6.50;5.90;;;;;;;27.95;54.21;98316.97;4190319;28;20635;-85
2023/06/16 07:49:48;;;;;;;6.83;6.23;;;;;;;28.01;52.82;98311.59;4176676;28;20642;-85
2023/06/16 07:51:52;;;;;;;6.67;5.90;;;;;;;28.07;53.50;98311.59;4177959;28;20632;-85
2023/06/16 07:53:55;;;;;;;7.77;5.67;;;;;;;28.13;52.02;98310.78;4190999;28;20669;-85
2023/06/16 07:55:58;;;;;;;7.67;5.57;;;;;;;28.19;51.49;98317.16;4191512;28;20668;-85
2023/06/16 07:58:02;;;;;;;10.20;5.90;;;;;;;28.20;51.80;98311.59;4194066;28;21130;-85
2023/06/16 08:00:11;;;;;;;8.20;6.60;;;;;;;28.14;51.44;98304.38;4190505;28;21013;-85
2023/06/16 08:02:16;;;;;;;6.83;5.90;;;;;;;28.15;51.17;98300.66;4193562;28;20630;-85
2023/06/16 08:04:21;;;;;;;6.40;5.80;;;;;;;28.21;51.29;98302.50;4194756;28;20653;-85
2023/06/16 08:06:25;;;;;;;6.50;5.90;;;;;;;28.31;51.17;98302.06;4202617;28;20665;-85
2023/06/16 08:08:28;;;;;;;8.30;6.30;;;;;;;28.39;51.45;98296.50;4197669;28;20668;-85
2023/06/16 08:10:31;;;;;;;6.20;5.60;;;;;;;28.43;51.95;98298.56;4195536;28;20636;-85
2023/06/16 08:12:34;;;;;;;5.97;5.23;;;;;;;28.53;51.13;98290.84;4200503;28;20761;-85
2023/06/16 08:14:38;;;;;;;5.73;5.00;;;;;;;28.61;50.47;98298.66;4200231;28;21032;-85
2023/06/16 08:16:41;;;;;;;6.27;5.67;;;;;;;28.70;49.66;98300.13;4202165;28;20627;-85
2023/06/16 08:18:44;;;;;;;6.50;5.80;;;;;;;28.74;49.52;98291.41;4199036;28;20627;-85
2023/06/16 08:20:49;;;;;;;6.33;5.73;;;;;;;28.84;50.16;98288.31;4198360;28;20635;-85
2023/06/16 08:23:21;;;;;;;7.13;5.47;;;;;;;28.94;49.81;98288.66;4194820;28;20645;-85
2023/06/16 08:25:24;;;;;;;8.00;6.30;;;;;;;28.96;49.64;98284.72;4184631;28;20638;-84
2023/06/16 08:27:27;;;;;;;6.30;5.40;;;;;;;29.09;50.85;98293.53;4193437;28;20638;-82
2023/06/16 08:29:31;;;;;;;6.97;5.40;;;;;;;29.27;51.44;98290.97;4197941;28;21050;-82
2023/06/16 08:31:34;;;;;;;5.23;4.73;;;;;;;29.36;49.32;98294.22;4198251;28;20696;-81
2023/06/16 08:33:37;;;;;;;6.90;5.73;;;;;;;29.38;49.43;98292.97;4193761;28;21216;-82
2023/06/16 08:35:40;;;;;;;7.87;5.20;;;;;;;29.43;49.00;98295.00;4200014;28;20639;-81
2023/06/16 08:37:45;;;;;;;5.73;4.80;;;;;;;29.44;49.43;98285.88;4194579;28;20638;-82
2023/06/16 08:39:48;;;;;;;6.00;5.20;;;;;;;29.50;47.85;98283.16;4192295;28;20630;-82
2023/06/16 08:41:51;;;;;;;5.70;5.10;;;;;;;29.54;48.39;98281.66;4194245;28;20667;-84
2023/06/16 08:43:55;;;;;;;7.93;5.07;;;;;;;29.60;48.60;98283.47;4203020;28;20646;-83
2023/06/16 08:46:00;;;;;;;5.60;4.87;;;;;;;29.65;47.90;98275.56;4195869;28;20657;-82
2023/06/16 08:48:04;;;;;;;7.10;4.97;;;;;;;29.67;47.85;98270.81;4196244;28;20644;-83
2023/06/16 08:50:08;;;;;;;5.90;4.60;;;;;;;29.61;48.50;98279.75;4193235;28;20655;-82
2023/06/16 08:52:16;;;;;;;6.07;5.10;;;;;;;29.62;48.50;98270.66;4199144;28;20645;-81
2023/06/16 08:54:27;;;;;;;5.40;4.90;;;;;;;29.53;46.15;98272.78;4194067;28;20686;-82
2023/06/16 08:56:32;;;;;;;6.00;5.40;;;;;;;29.48;46.81;98269.94;4191753;28;21294;-82
2023/06/16 08:58:37;;;;;;;5.97;4.47;;;;;;;29.45;46.25;98268.72;4201622;28;21164;-82
2023/06/16 09:00:41;;;;;;;5.30;4.67;;;;;;;29.48;45.23;98269.94;4197859;28;20777;-82
2023/06/16 09:02:48;;;;;;;4.80;4.33;;;;;;;29.32;45.52;98256.19;4196251;28;20663;-82
2023/06/16 09:04:53;;;;;;;5.23;4.20;;;;;;;29.46;45.94;98260.44;4193463;28;20666;-82
2023/06/16 09:06:58;;;;;;;5.27;4.77;;;;;;;29.53;46.97;98259.34;4173991;28;20655;-82
2023/06/16 09:09:01;;;;;;;14.07;4.70;;;;;;;29.60;45.25;98254.75;4191056;28;20722;-82
2023/06/16 09:11:13;;;;;;;6.13;4.83;;;;;;;29.65;46.15;98251.34;4199233;28;20637;-82
2023/06/16 09:13:19;;;;;;;5.13;4.60;;;;;;;29.62;43.78;98251.81;4187915;28;20970;-82
2023/06/16 09:15:24;;;;;;;4.90;4.10;;;;;;;29.64;45.12;98253.25;4203406;28;20705;-82
2023/06/16 09:17:30;;;;;;;6.13;4.30;;;;;;;29.68;44.05;98246.38;4186594;28;20643;-82
2023/06/16 09:19:35;;;;;;;5.80;4.13;;;;;;;29.74;44.49;98250.88;4183162;28;20636;-82
2023/06/16 09:21:48;;;;;;;5.17;4.13;;;;;;;29.80;43.70;98241.97;4200234;28;21225;-82
2023/06/16 09:23:58;;;;;;;4.13;3.70;;;;;;;29.90;45.04;98249.53;4187197;28;21051;-82
2023/06/16 09:26:12;;;;;;;6.67;4.30;;;;;;;29.78;42.57;98244.00;4186000;28;20627;-82
2023/06/16 09:28:17;;;;;;;4.63;3.80;;;;;;;29.80;43.07;98250.03;4193127;28;21265;-82
2023/06/16 09:30:21;;;;;;;8.83;3.87;;;;;;;29.91;44.24;98241.22;4195413;28;20643;-82
2023/06/16 09:32:36;;;;;;;5.20;4.60;;;;;;;29.97;42.25;98245.72;4199697;28;20650;-82
2023/06/16 09:34:43;;;;;;;4.87;3.53;;;;;;;29.78;42.56;98237.81;4183160;28;20647;-82
2023/06/16 09:36:47;;;;;;;5.50;4.00;;;;;;;29.95;45.30;98242.44;4199696;28;21186;-82
2023/06/16 09:38:50;;;;;;;5.07;3.90;;;;;;;29.97;42.41;98234.97;4203529;28;20704;-82
2023/06/16 09:40:53;;;;;;;4.50;4.00;;;;;;;29.75;42.58;98233.69;4184968;28;21292;-82
2023/06/16 09:42:59;;;;;;;4.90;4.10;;;;;;;29.38;42.12;98227.59;4200164;28;20628;-82
2023/06/16 09:45:04;;;;;;;4.50;4.10;;;;;;;29.07;42.88;98233.78;4182285;28;20638;-81
2023/06/16 09:47:08;;;;;;;5.20;4.27;;;;;;;28.89;44.10;98227.50;4196251;28;20634;-82